TFM - Tactical Decision Aid
ID: Runway Winds: CIG/VIS Threshold:

KFLL - Ft Lauderdale-Hollyw, FL, US

Updated at: 2152 UTC 23 Apr 2019
Latest TAF at: 2142 UTC 23 Apr 2019

TAF Board

Time2053Z 23/22Z 23/23Z 24/00Z 24/01Z 24/02Z 24/03Z 24/04Z 24/05Z 24/06Z 24/07Z 24/08Z 24/09Z 24/10Z>>
Type OBS PRVL PRVL PRVL PRVL PRVL PRVL PRVL PRVL PRVL PRVL PRVL PRVL PRVL
VIS 10 >6 >6 >6 >6 >6 >6 >6 >6 >6 >6 >6 >6 >6
CIG -- -- -- -- -- -- -- -- -- -- -- -- -- --
Cover FEW FEW FEW FEW FEW FEW FEW FEW FEW FEW FEW FEW FEW FEW
FltCat VFR VFR VFR VFR VFR VFR VFR VFR VFR VFR VFR VFR VFR VFR
WX -- -- -- -- -- -- -- -- -- -- -- -- -- --
WDir 50 50 50 50 50 70 70 70 70 70 70 70 70 70
WSpd 10 10 10 10 10 3 3 3 3 3 3 3 3 3
WGst 19 20 20 20 20 -- -- -- -- -- -- -- -- --

TDA Impact Legend

  None Marginal Slight Moderate High
Visibility (sm) >5 3≤X≤5 2≤X<3 0.75≤X<2 <0.75
Ceiling (100 ft) >30 10≤X≤30 6≤X<10 3≤X<6 <3
Wind Speed (kt) <15 15≤X<25 25≤X<30 ≥30
Wind Gust (kt) <15 15≤X<25 25≤X<35 ≥35
Weather No Wx Reported VCTS -TS,-FZRA TS,FZRA +TS,+FZRA
TAF
KFLL 232142Z 2322/2424 05010G20KT P6SM FEW040
  FM240200 07003KT P6SM FEW040
  FM241500 08010KT P6SM FEW040


METAR
KFLL 232053Z 05010G19KT 10SM FEW040 26/14 A3003 RMK AO2 SLP168 T02610144 56019
KFLL 231953Z 06011G18KT 10SM FEW040 27/14 A3004 RMK AO2 SLP172 T02670144
KFLL 231853Z 05012KT 10SM FEW040 27/14 A3007 RMK AO2 SLP181 T02670144

Radar Display
Forecast Discussion